createdAt,value
2023-01-23T00:00:07.017Z,0.51
2023-01-23T00:01:06.995Z,0.52
2023-01-23T00:02:07.037Z,0.50
2023-01-23T00:03:06.966Z,0.51
2023-01-23T00:04:06.982Z,0.50
2023-01-23T00:05:06.949Z,0.51
2023-01-23T00:06:06.940Z,0.51
2023-01-23T00:07:06.927Z,0.50
2023-01-23T00:08:06.973Z,0.52
2023-01-23T00:09:06.923Z,0.51
2023-01-23T00:10:07.009Z,0.51
2023-01-23T00:11:06.915Z,0.51
2023-01-23T00:12:06.902Z,0.52
2023-01-23T00:13:06.886Z,0.51
2023-01-23T00:14:06.876Z,0.51
2023-01-23T00:15:06.858Z,0.51
2023-01-23T00:16:06.863Z,0.53
2023-01-23T00:17:06.855Z,0.51
2023-01-23T00:18:06.844Z,0.51
2023-01-23T00:19:06.833Z,0.52
2023-01-23T00:20:06.843Z,0.52
2023-01-23T00:21:06.848Z,0.51
2023-01-23T00:22:06.827Z,0.52
2023-01-23T00:23:06.803Z,0.50
2023-01-23T00:24:06.774Z,0.50
2023-01-23T00:25:06.766Z,0.51
2023-01-23T00:27:06.735Z,0.51
2023-01-23T00:28:06.725Z,0.52
2023-01-23T00:29:06.712Z,0.52
2023-01-23T00:36:06.601Z,0.51
2023-01-23T00:44:06.472Z,0.53
2023-01-23T00:45:06.463Z,0.52
2023-01-23T00:46:06.464Z,0.52
2023-01-23T01:02:06.202Z,0.51
2023-01-23T01:16:06.047Z,0.52
2023-01-23T01:17:06.007Z,0.51
2023-01-23T01:27:05.909Z,0.51
2023-01-23T01:28:05.885Z,0.52
2023-01-23T01:29:05.867Z,0.52
2023-01-23T01:30:05.939Z,0.51
2023-01-23T01:31:05.908Z,0.53
2023-01-23T01:32:05.836Z,0.53
2023-01-23T01:33:05.828Z,0.51
2023-01-23T01:34:05.804Z,0.52
2023-01-23T01:35:05.786Z,0.51
2023-01-23T01:36:05.770Z,0.52
2023-01-23T01:37:05.740Z,0.51
2023-01-23T01:38:05.757Z,0.51
2023-01-23T01:39:05.700Z,0.51
2023-01-23T01:40:05.684Z,0.51
2023-01-23T01:41:05.677Z,0.50
2023-01-23T01:42:05.658Z,0.51
2023-01-23T01:43:05.653Z,0.52
2023-01-23T01:44:05.640Z,0.52
2023-01-23T01:45:05.637Z,0.51
2023-01-23T01:46:05.724Z,0.51
2023-01-23T01:47:05.581Z,0.51
2023-01-23T01:48:05.603Z,0.51
2023-01-23T01:49:05.563Z,0.51
2023-01-23T01:50:05.546Z,0.51
2023-01-23T01:51:05.558Z,0.51
2023-01-23T01:52:05.533Z,0.52
2023-01-23T01:53:05.513Z,0.52
2023-01-23T02:02:05.557Z,0.51
2023-01-23T02:09:06.153Z,0.51
2023-01-23T05:37:59.930Z,0.52
2023-01-23T05:46:59.551Z,0.52
2023-01-23T05:47:59.449Z,0.51
2023-01-23T05:48:59.409Z,0.52
2023-01-23T05:49:59.346Z,0.52
2023-01-23T05:50:59.313Z,0.52
2023-01-23T05:51:59.264Z,0.51
2023-01-23T05:52:59.223Z,0.51
2023-01-23T05:53:59.150Z,0.52
2023-01-23T05:54:59.093Z,0.51
2023-01-23T05:55:59.057Z,0.53
2023-01-23T05:56:59.068Z,0.52
2023-01-23T05:57:58.946Z,0.52
2023-01-23T05:58:58.969Z,0.52
2023-01-23T05:59:58.836Z,0.52
2023-01-23T06:00:58.787Z,0.51
2023-01-23T06:01:58.833Z,0.53
2023-01-23T06:34:56.582Z,0.55
2023-01-23T06:35:56.484Z,0.55
2023-01-23T06:36:56.421Z,0.53
2023-01-23T06:37:56.357Z,0.53
2023-01-23T06:38:56.295Z,0.54
2023-01-23T06:39:56.234Z,0.54
2023-01-23T06:40:56.190Z,0.55
2023-01-23T06:41:56.674Z,0.54
2023-01-23T06:42:56.088Z,0.53
2023-01-23T06:43:56.031Z,0.53
2023-01-23T06:44:55.957Z,0.54
2023-01-23T06:45:55.909Z,0.53
2023-01-23T06:46:55.858Z,0.54
2023-01-23T06:47:55.811Z,0.54
2023-01-23T06:48:55.756Z,0.54
2023-01-23T06:49:55.784Z,0.53
2023-01-23T06:50:55.684Z,0.53
2023-01-23T06:51:55.581Z,0.54
2023-01-23T06:52:55.520Z,0.54
2023-01-23T07:39:53.049Z,0.70
2023-01-23T07:40:53.021Z,0.72
2023-01-23T07:41:53.737Z,0.72
2023-01-23T07:42:52.946Z,0.73
2023-01-23T07:43:52.913Z,0.76
2023-01-23T07:44:52.820Z,0.77
2023-01-23T07:45:52.761Z,0.79
2023-01-23T07:46:52.792Z,0.81
2023-01-23T07:47:52.625Z,0.83
2023-01-23T07:48:52.548Z,0.86
2023-01-23T07:49:52.619Z,0.89
2023-01-23T07:50:52.519Z,1.06
2023-01-23T07:51:52.427Z,0.64
2023-01-23T07:52:52.387Z,0.58
2023-01-23T07:53:52.444Z,0.55
2023-01-23T07:54:52.345Z,0.55
2023-01-23T07:55:52.321Z,0.62
2023-01-23T07:56:52.281Z,0.62
2023-01-23T07:57:52.244Z,0.66
2023-01-23T07:58:52.217Z,0.61
2023-01-23T07:59:52.204Z,0.66
2023-01-23T08:00:52.742Z,0.65
2023-01-23T08:01:52.149Z,0.66
2023-01-23T08:02:52.099Z,0.62
2023-01-23T08:03:52.175Z,0.66
2023-01-23T08:04:52.036Z,0.68
2023-01-23T08:05:52.016Z,0.64
2023-01-23T08:06:51.975Z,0.67
2023-01-23T08:08:00.689Z,0.69
2023-01-23T08:08:52.876Z,0.70
2023-01-23T08:09:51.879Z,0.70
2023-01-23T08:10:51.721Z,0.72
2023-01-23T08:11:51.639Z,0.75
2023-01-23T08:12:51.553Z,0.80
2023-01-23T08:13:51.482Z,0.90
2023-01-23T08:14:51.399Z,0.92
2023-01-23T08:15:51.317Z,0.93
2023-01-23T08:16:51.265Z,0.89
2023-01-23T08:17:51.178Z,0.86
2023-01-23T08:18:51.066Z,0.88
2023-01-23T08:19:51.015Z,0.89
2023-01-23T08:20:50.909Z,0.89
2023-01-23T08:21:50.816Z,0.90
2023-01-23T08:22:50.736Z,0.89
2023-01-23T08:23:50.661Z,0.90
2023-01-23T08:24:50.573Z,0.89
2023-01-23T08:25:50.805Z,0.90
2023-01-23T08:26:50.431Z,0.89
2023-01-23T08:27:50.394Z,0.87
2023-01-23T09:23:47.536Z,0.73
2023-01-23T09:24:47.444Z,0.70
2023-01-23T09:25:47.419Z,0.68
2023-01-23T09:26:47.399Z,0.69
2023-01-23T09:27:47.388Z,0.68
2023-01-23T09:28:47.395Z,0.70
2023-01-23T09:29:47.491Z,0.72
2023-01-23T09:30:47.420Z,0.72
2023-01-23T09:31:47.404Z,0.71
2023-01-23T09:32:47.344Z,0.71
2023-01-23T09:33:47.316Z,0.74
2023-01-23T09:34:47.293Z,0.74
2023-01-23T09:35:47.256Z,0.69
2023-01-23T09:36:47.224Z,0.73
2023-01-23T09:37:47.188Z,0.71
2023-01-23T09:38:47.173Z,0.74
2023-01-23T09:39:47.138Z,0.72
2023-01-23T09:40:47.112Z,0.73
2023-01-23T09:41:47.074Z,0.74
2023-01-23T09:42:47.040Z,0.74
2023-01-23T09:43:46.994Z,0.73
2023-01-23T09:44:46.964Z,0.74
2023-01-23T09:45:47.054Z,0.74
2023-01-23T09:46:46.886Z,0.72
2023-01-23T09:47:46.861Z,0.71
2023-01-23T09:48:46.815Z,0.73
2023-01-23T09:49:46.798Z,0.71
2023-01-23T09:50:46.749Z,0.71
2023-01-23T09:51:46.710Z,0.70
2023-01-23T09:52:46.659Z,0.72
2023-01-23T09:53:46.631Z,0.69
2023-01-23T09:54:46.610Z,0.70
2023-01-23T09:55:46.553Z,0.69
2023-01-23T09:56:46.511Z,0.68
2023-01-23T09:57:46.474Z,0.69
2023-01-23T09:58:46.451Z,0.68
2023-01-23T09:59:58.680Z,0.69
2023-01-23T10:00:47.408Z,0.68
2023-01-23T10:01:46.353Z,0.68
2023-01-23T10:02:46.227Z,0.68
2023-01-23T10:03:46.129Z,0.66
2023-01-23T10:04:46.037Z,0.69
2023-01-23T10:05:45.957Z,0.63
2023-01-23T10:06:45.890Z,0.67
2023-01-23T10:07:45.821Z,0.66
2023-01-23T10:08:45.758Z,0.65
2023-01-23T10:09:46.328Z,0.63
2023-01-23T10:10:45.607Z,0.66
2023-01-23T10:11:45.544Z,0.63
2023-01-23T10:29:46.334Z,0.62
2023-01-23T12:20:39.529Z,0.82
2023-01-23T12:21:41.508Z,0.82
2023-01-23T12:23:40.705Z,0.82
2023-01-23T12:24:40.984Z,0.82
2023-01-23T12:25:39.231Z,0.82
2023-01-23T12:26:39.049Z,0.82
2023-01-23T12:27:38.985Z,0.80
2023-01-23T12:28:38.902Z,0.81
2023-01-23T12:29:38.919Z,0.80
2023-01-23T12:30:39.794Z,0.82
2023-01-23T12:31:38.840Z,0.82
2023-01-23T12:32:38.736Z,0.82
2023-01-23T12:33:38.542Z,0.81
2023-01-23T12:34:38.540Z,0.81
2023-01-23T12:35:38.379Z,0.80
2023-01-23T12:36:48.439Z,0.80
2023-01-23T12:37:39.260Z,0.82
2023-01-23T12:38:38.150Z,0.81
2023-01-23T12:39:38.065Z,0.79
2023-01-23T12:40:38.822Z,0.79
2023-01-23T12:41:38.039Z,0.79
2023-01-23T12:42:38.373Z,0.78
2023-01-23T12:43:37.803Z,0.78
2023-01-23T12:44:38.536Z,0.79
2023-01-23T12:45:37.637Z,0.79
2023-01-23T12:46:37.609Z,0.79
2023-01-23T12:47:37.587Z,0.79
2023-01-23T12:48:37.469Z,0.79
2023-01-23T12:49:37.888Z,0.79
2023-01-23T12:50:37.258Z,0.79
2023-01-23T12:51:37.198Z,0.79
2023-01-23T12:52:37.200Z,0.79
2023-01-23T12:53:37.056Z,0.77
2023-01-23T12:54:36.968Z,0.77
2023-01-23T12:55:37.033Z,0.77
2023-01-23T12:56:36.846Z,0.76
2023-01-23T12:57:46.188Z,0.76
2023-01-23T12:58:37.688Z,0.77
2023-01-23T12:59:36.605Z,0.77
2023-01-23T13:00:36.649Z,0.76
2023-01-23T13:01:36.466Z,0.76
2023-01-23T13:02:36.376Z,0.76
2023-01-23T13:03:45.477Z,0.76
2023-01-23T13:04:37.243Z,0.76
2023-01-23T13:05:36.184Z,0.76
2023-01-23T13:06:36.090Z,0.76
2023-01-23T13:07:36.048Z,0.76
2023-01-23T13:08:38.389Z,0.75
2023-01-23T13:09:36.883Z,0.76
2023-01-23T13:10:35.793Z,0.75
2023-01-23T13:11:35.719Z,0.75
2023-01-23T13:12:35.652Z,0.74
2023-01-23T13:13:35.709Z,0.76
2023-01-23T13:14:52.570Z,0.74
2023-01-23T13:15:40.928Z,0.74
2023-01-23T14:04:31.833Z,0.82
2023-01-23T14:16:30.959Z,0.80
2023-01-23T14:18:30.826Z,0.80
2023-01-23T14:19:30.820Z,0.81
2023-01-23T14:20:30.699Z,0.81
2023-01-23T14:21:40.782Z,0.80
2023-01-23T14:23:30.529Z,0.80
2023-01-23T14:24:30.464Z,0.81
2023-01-23T14:25:30.337Z,0.80
2023-01-23T14:26:30.429Z,0.80
2023-01-23T14:27:30.647Z,0.81
2023-01-23T14:28:30.123Z,0.80
2023-01-23T14:29:30.044Z,0.80
2023-01-23T14:30:29.992Z,0.82
2023-01-23T14:31:30.012Z,0.81
2023-01-23T14:32:29.939Z,0.80
2023-01-23T14:33:29.850Z,0.79
2023-01-23T14:34:29.820Z,0.81
2023-01-23T14:35:29.680Z,0.80
2023-01-23T14:36:29.549Z,0.79
2023-01-23T14:37:29.493Z,0.80
2023-01-23T14:38:29.424Z,0.79
2023-01-23T14:39:29.351Z,0.79
2023-01-23T14:40:37.333Z,0.79
2023-01-23T14:42:29.215Z,0.79
2023-01-23T14:43:29.086Z,0.79
2023-01-23T14:44:29.024Z,0.79
2023-01-23T14:45:29.502Z,0.77
2023-01-23T14:46:29.150Z,0.78
2023-01-23T14:47:32.830Z,0.78
2023-01-23T14:48:29.752Z,0.78
2023-01-23T14:49:28.766Z,0.78
2023-01-23T14:50:28.615Z,0.78
2023-01-23T14:51:28.549Z,0.79
2023-01-23T14:52:28.476Z,0.78
2023-01-23T14:53:28.390Z,0.77
2023-01-23T14:54:32.878Z,0.78
2023-01-23T14:55:30.145Z,0.78
2023-01-23T14:56:28.476Z,0.78
2023-01-23T14:57:28.104Z,0.78
2023-01-23T14:58:28.035Z,0.77
2023-01-23T14:59:27.989Z,0.78
2023-01-23T15:00:27.925Z,0.76
2023-01-23T15:01:27.899Z,0.78
2023-01-23T15:02:27.853Z,0.74
2023-01-23T15:03:27.715Z,0.77
2023-01-23T15:04:27.644Z,0.76
2023-01-23T15:05:27.677Z,0.77
2023-01-23T15:06:27.655Z,0.77
2023-01-23T15:07:27.441Z,0.75
2023-01-23T15:08:27.508Z,0.76
2023-01-23T15:09:29.172Z,0.75
2023-01-23T15:10:27.263Z,0.74
2023-01-23T15:11:27.429Z,0.75
2023-01-23T15:12:27.137Z,0.75
2023-01-23T15:13:27.129Z,0.75
2023-01-23T15:14:27.015Z,0.74
2023-01-23T15:15:26.946Z,0.75
2023-01-23T15:16:26.927Z,0.73
2023-01-23T15:17:26.805Z,0.73
2023-01-23T15:18:26.752Z,0.74
2023-01-23T15:19:26.688Z,0.74
2023-01-23T15:20:26.643Z,0.73
2023-01-23T15:21:26.708Z,0.72
2023-01-23T15:32:25.824Z,0.71
2023-01-23T15:33:25.764Z,0.70
2023-01-23T15:34:25.705Z,0.73
2023-01-23T15:36:25.685Z,0.70
2023-01-23T15:37:25.649Z,0.73
2023-01-23T15:38:25.519Z,0.72
2023-01-23T17:17:20.430Z,0.63
2023-01-23T17:22:20.101Z,0.62
2023-01-23T17:23:20.068Z,0.63
2023-01-23T17:24:20.013Z,0.63
2023-01-23T17:25:20.021Z,0.64
2023-01-23T17:26:19.885Z,0.62
2023-01-23T17:27:19.857Z,0.63
2023-01-23T17:28:19.784Z,0.63
2023-01-23T17:29:19.835Z,0.62
2023-01-23T17:30:19.738Z,0.63
2023-01-23T17:31:19.842Z,0.64
2023-01-23T17:32:19.720Z,0.63
2023-01-23T17:33:19.840Z,0.63
2023-01-23T17:34:19.540Z,0.63
2023-01-23T17:35:19.659Z,0.62
2023-01-23T17:36:19.455Z,0.64
2023-01-23T17:38:19.363Z,0.62
2023-01-23T17:39:20.547Z,0.63
2023-01-23T17:40:19.196Z,0.63
2023-01-23T17:41:19.170Z,0.63
2023-01-23T17:42:19.116Z,0.63
2023-01-23T17:43:19.076Z,0.62
2023-01-23T17:44:18.934Z,0.63
2023-01-23T17:45:19.395Z,0.62
2023-01-23T17:46:18.802Z,0.62
2023-01-23T17:47:19.499Z,0.60
2023-01-23T17:48:18.662Z,0.62
2023-01-23T17:49:18.834Z,0.62
2023-01-23T17:50:18.797Z,0.63
2023-01-23T17:51:18.787Z,0.61
2023-01-23T17:52:18.388Z,0.61
2023-01-23T17:53:18.318Z,0.61
2023-01-23T17:54:18.439Z,0.61
2023-01-23T17:55:18.332Z,0.61
2023-01-23T17:56:18.120Z,0.61
2023-01-23T17:57:18.123Z,0.61
2023-01-23T17:58:17.963Z,0.61
2023-01-23T17:59:17.895Z,0.58
2023-01-23T18:00:17.997Z,0.60
2023-01-23T18:01:18.090Z,0.61
2023-01-23T18:02:17.870Z,0.60
2023-01-23T18:03:17.710Z,0.61
2023-01-23T18:04:17.693Z,0.60
2023-01-23T18:05:18.731Z,0.60
2023-01-23T18:06:17.598Z,0.60
2023-01-23T18:07:17.576Z,0.59
2023-01-23T18:08:17.533Z,0.61
2023-01-23T18:09:17.505Z,0.60
2023-01-23T18:10:17.475Z,0.61
2023-01-23T18:11:17.454Z,0.61
2023-01-23T18:12:17.577Z,0.61
2023-01-23T18:13:17.360Z,0.60
2023-01-23T18:14:17.333Z,0.60
2023-01-23T18:15:17.288Z,0.59
2023-01-23T18:16:17.280Z,0.60
2023-01-23T18:17:17.272Z,0.60
2023-01-23T18:18:17.167Z,0.60
2023-01-23T18:19:17.139Z,0.60
2023-01-23T18:20:17.216Z,0.59
2023-01-23T18:21:17.116Z,0.60
2023-01-23T18:22:17.014Z,0.59
2023-01-23T18:23:16.987Z,0.61
2023-01-23T18:24:16.978Z,0.59
2023-01-23T18:25:16.920Z,0.59
2023-01-23T18:26:16.869Z,0.59
2023-01-23T18:27:16.955Z,0.58
2023-01-23T18:28:16.786Z,0.59
2023-01-23T18:29:16.741Z,0.58
2023-01-23T18:30:16.712Z,0.59
2023-01-23T18:31:16.832Z,0.58
2023-01-23T18:32:16.709Z,0.60
2023-01-23T18:33:16.730Z,0.59
2023-01-23T18:34:16.569Z,0.58
2023-01-23T18:35:16.532Z,0.58
2023-01-23T18:36:16.512Z,0.58
2023-01-23T18:37:16.452Z,0.59
2023-01-23T18:38:17.049Z,0.58
2023-01-23T18:39:16.495Z,0.59
2023-01-23T18:40:18.180Z,0.58
2023-01-23T18:41:16.329Z,0.58
2023-01-23T18:42:16.290Z,0.57
2023-01-23T18:43:16.259Z,0.57
2023-01-23T18:44:16.223Z,0.57
2023-01-23T18:45:23.525Z,0.56
2023-01-23T18:46:17.149Z,0.56
2023-01-23T18:47:16.062Z,0.56
2023-01-23T18:48:24.803Z,0.57
2023-01-23T18:49:31.778Z,0.56
2023-01-23T18:50:16.810Z,0.56
2023-01-23T18:51:15.775Z,0.57
2023-01-23T18:52:15.708Z,0.57
2023-01-23T18:53:16.673Z,0.57
2023-01-23T18:54:15.561Z,0.58
2023-01-23T18:55:15.659Z,0.57
2023-01-23T19:19:16.898Z,0.56
2023-01-23T20:16:10.311Z,0.52
2023-01-23T20:20:09.910Z,0.52
2023-01-23T20:21:09.963Z,0.53
2023-01-23T20:22:09.902Z,0.53
2023-01-23T20:23:09.744Z,0.53
2023-01-23T20:24:09.755Z,0.53
2023-01-23T20:25:09.836Z,0.52
2023-01-23T20:26:09.791Z,0.53
2023-01-23T20:27:09.609Z,0.52
2023-01-23T20:28:09.576Z,0.52
2023-01-23T20:29:09.555Z,0.51
2023-01-23T20:30:09.600Z,0.51
2023-01-23T20:31:09.658Z,0.53
2023-01-23T20:32:09.463Z,0.52
2023-01-23T20:33:09.428Z,0.51
2023-01-23T20:34:09.442Z,0.52
2023-01-23T20:35:09.499Z,0.52
2023-01-23T20:36:09.505Z,0.52
2023-01-23T20:37:09.313Z,0.51
2023-01-23T20:38:09.300Z,0.52
2023-01-23T20:39:09.384Z,0.52
2023-01-23T20:40:09.321Z,0.52
2023-01-23T20:41:09.335Z,0.52
2023-01-23T20:42:10.671Z,0.51
2023-01-23T20:43:09.180Z,0.51
2023-01-23T20:44:09.126Z,0.52
2023-01-23T20:45:09.092Z,0.51
2023-01-23T20:46:09.081Z,0.51
2023-01-23T20:47:09.063Z,0.50
2023-01-23T20:48:08.993Z,0.52
2023-01-23T20:49:08.975Z,0.51
2023-01-23T20:50:08.946Z,0.52
2023-01-23T20:51:09.775Z,0.51
2023-01-23T20:52:08.877Z,0.51
2023-01-23T20:53:08.954Z,0.51
2023-01-23T20:54:08.901Z,0.51
2023-01-23T20:55:08.891Z,0.52
2023-01-23T20:56:08.918Z,0.52
2023-01-23T20:57:08.834Z,0.50
2023-01-23T20:58:08.724Z,0.51
2023-01-23T20:59:08.699Z,0.50
2023-01-23T21:00:08.649Z,0.51
2023-01-23T21:01:08.655Z,0.51
2023-01-23T21:02:08.684Z,0.51
2023-01-23T21:03:08.593Z,0.51
2023-01-23T21:04:08.520Z,0.51
2023-01-23T21:05:08.505Z,0.52
2023-01-23T21:06:09.181Z,0.52
2023-01-23T21:07:08.582Z,0.51
2023-01-23T21:08:08.523Z,0.52
2023-01-23T21:09:08.514Z,0.51
2023-01-23T21:10:08.462Z,0.51
2023-01-23T21:11:08.342Z,0.52
2023-01-23T21:12:08.321Z,0.51
2023-01-23T21:13:08.386Z,0.52
2023-01-23T21:14:08.705Z,0.52
2023-01-23T21:15:08.244Z,0.52
2023-01-23T21:16:08.266Z,0.51
2023-01-23T21:17:08.339Z,0.52
2023-01-23T21:18:08.164Z,0.51
2023-01-23T21:19:08.333Z,0.52
2023-01-23T21:20:08.092Z,0.51
2023-01-23T21:21:08.210Z,0.51
2023-01-23T21:22:08.033Z,0.51
2023-01-23T21:23:08.002Z,0.51
2023-01-23T21:24:08.068Z,0.51
2023-01-23T21:25:07.937Z,0.51
2023-01-23T21:26:08.002Z,0.51
2023-01-23T21:27:07.889Z,0.52
2023-01-23T21:28:07.867Z,0.51
2023-01-23T21:29:08.660Z,0.51
2023-01-23T21:30:07.891Z,0.52
2023-01-23T21:31:07.821Z,0.52
2023-01-23T21:32:07.807Z,0.53
2023-01-23T21:33:07.752Z,0.52
2023-01-23T21:34:07.842Z,0.52
2023-01-23T21:35:07.754Z,0.52
2023-01-23T21:36:07.668Z,0.52
2023-01-23T21:37:07.631Z,0.52
2023-01-23T21:38:07.608Z,0.51
2023-01-23T21:39:09.437Z,0.52
2023-01-23T21:40:07.588Z,0.52
2023-01-23T21:41:07.492Z,0.52
2023-01-23T21:42:07.430Z,0.52
2023-01-23T21:43:07.459Z,0.51
2023-01-23T21:44:07.279Z,0.51
2023-01-23T21:45:07.305Z,0.51
2023-01-23T21:46:07.280Z,0.51
2023-01-23T21:47:07.103Z,0.51
2023-01-23T21:48:07.036Z,0.52
2023-01-23T21:49:06.984Z,0.51
2023-01-23T21:50:06.966Z,0.52
2023-01-23T21:51:06.905Z,0.52
2023-01-23T21:52:06.792Z,0.51
2023-01-23T21:53:06.822Z,0.51
2023-01-23T21:54:06.706Z,0.51
2023-01-23T21:55:06.699Z,0.52
2023-01-23T21:56:06.535Z,0.51
2023-01-23T21:57:06.488Z,0.50
2023-01-23T22:02:06.219Z,0.51
2023-01-23T22:03:06.115Z,0.51
2023-01-23T22:04:06.096Z,0.51
2023-01-23T22:05:06.087Z,0.51
2023-01-23T22:06:06.031Z,0.51
2023-01-23T22:07:05.855Z,0.52
2023-01-23T22:08:05.935Z,0.52
2023-01-23T22:09:05.730Z,0.51
2023-01-23T22:10:05.669Z,0.51
2023-01-23T22:11:05.594Z,0.52
2023-01-23T22:12:05.554Z,0.51
2023-01-23T22:18:06.132Z,0.52
2023-01-23T23:39:01.513Z,0.51
2023-01-23T23:40:01.505Z,0.52
2023-01-23T23:41:01.410Z,0.51
2023-01-23T23:42:01.448Z,0.51
2023-01-23T23:43:01.337Z,0.52
2023-01-23T23:44:01.323Z,0.52
2023-01-23T23:45:01.403Z,0.51
2023-01-23T23:46:01.308Z,0.53
2023-01-23T23:47:01.256Z,0.52
2023-01-23T23:48:01.224Z,0.52
2023-01-23T23:49:01.160Z,0.52
2023-01-23T23:50:01.144Z,0.52
2023-01-23T23:51:01.861Z,0.51
2023-01-23T23:52:01.092Z,0.51
2023-01-23T23:53:01.153Z,0.52
2023-01-23T23:54:01.252Z,0.51
2023-01-23T23:55:01.013Z,0.51
2023-01-23T23:56:00.990Z,0.52
2023-01-23T23:57:00.954Z,0.51
2023-01-23T23:58:01.002Z,0.51
2023-01-23T23:59:01.033Z,0.52
